createdAt,value
2018-12-19T00:00:16.070Z,7.10
2018-12-19T00:02:43.474Z,7.24
2018-12-19T00:05:10.877Z,7.32
2018-12-19T00:07:38.267Z,7.08
2018-12-19T00:10:05.716Z,6.89
2018-12-19T00:12:33.113Z,7.38
2018-12-19T00:15:00.496Z,7.15
2018-12-19T00:17:27.902Z,7.35
2018-12-19T00:19:55.311Z,7.47
2018-12-19T00:22:22.790Z,7.15
2018-12-19T00:24:50.201Z,7.38
2018-12-19T00:27:17.588Z,7.26
2018-12-19T00:29:44.977Z,6.71
2018-12-19T00:32:12.366Z,7.29
2018-12-19T00:34:39.763Z,7.02
2018-12-19T00:37:07.418Z,7.50
2018-12-19T00:39:34.833Z,7.36
2018-12-19T00:42:02.217Z,6.83
2018-12-19T00:44:29.636Z,7.19
2018-12-19T00:46:57.027Z,6.57
2018-12-19T00:49:24.442Z,7.25
2018-12-19T00:51:51.848Z,7.19
2018-12-19T00:54:19.261Z,7.95
2018-12-19T00:56:46.774Z,7.91
2018-12-19T00:59:14.230Z,7.90
2018-12-19T01:01:41.643Z,7.20
2018-12-19T01:04:09.018Z,7.15
2018-12-19T01:06:36.461Z,7.31
2018-12-19T01:09:06.049Z,7.92
2018-12-19T01:11:33.440Z,7.66
2018-12-19T01:14:00.844Z,7.35
2018-12-19T01:16:28.326Z,7.39
2018-12-19T01:18:55.714Z,7.57
2018-12-19T01:21:23.097Z,7.63
2018-12-19T01:23:50.472Z,7.75
2018-12-19T01:26:17.881Z,7.93
2018-12-19T01:28:45.275Z,7.92
2018-12-19T01:31:12.706Z,7.97
2018-12-19T01:33:40.094Z,7.78
2018-12-19T01:36:07.533Z,7.50
2018-12-19T01:38:35.030Z,7.42
2018-12-19T01:41:02.414Z,7.33
2018-12-19T01:43:29.834Z,7.77
2018-12-19T01:45:57.308Z,7.79
2018-12-19T01:48:24.694Z,7.75
2018-12-19T01:50:52.114Z,7.31
2018-12-19T01:53:19.542Z,7.61
2018-12-19T01:55:47.482Z,7.37
2018-12-19T01:58:14.885Z,7.87
2018-12-19T02:00:42.344Z,7.00
2018-12-19T02:03:09.825Z,7.54
2018-12-19T02:05:37.225Z,7.34
2018-12-19T02:08:04.626Z,7.39
2018-12-19T02:10:32.023Z,7.16
2018-12-19T02:12:59.514Z,7.89
2018-12-19T02:15:26.922Z,7.77
2018-12-19T02:17:54.301Z,7.04
2018-12-19T02:20:22.001Z,7.91
2018-12-19T02:22:49.385Z,7.69
2018-12-19T02:25:16.780Z,7.63
2018-12-19T02:27:44.177Z,7.40
2018-12-19T02:30:11.571Z,7.79
2018-12-19T02:32:39.038Z,7.63
2018-12-19T02:35:06.552Z,7.15
2018-12-19T02:37:33.957Z,7.18
2018-12-19T02:40:01.358Z,7.83
2018-12-19T02:42:28.753Z,7.42
2018-12-19T02:44:56.155Z,7.43
2018-12-19T02:47:23.656Z,7.41
2018-12-19T02:49:51.124Z,7.44
2018-12-19T02:52:18.512Z,7.57
2018-12-19T02:54:45.925Z,7.83
2018-12-19T02:57:13.326Z,7.50
2018-12-19T02:59:40.827Z,7.43
2018-12-19T03:02:08.311Z,8.00
2018-12-19T03:04:35.774Z,7.83
2018-12-19T03:07:03.170Z,7.85
2018-12-19T03:09:30.563Z,7.67
2018-12-19T03:11:58.078Z,7.39
2018-12-19T03:14:25.471Z,7.85
2018-12-19T03:16:52.846Z,7.83
2018-12-19T03:19:20.255Z,7.65
2018-12-19T03:21:47.668Z,7.37
2018-12-19T03:24:15.136Z,7.86
2018-12-19T03:26:42.517Z,7.49
2018-12-19T03:29:09.976Z,7.08
2018-12-19T03:31:37.368Z,7.30
2018-12-19T03:34:04.756Z,7.45
2018-12-19T03:36:32.217Z,7.28
2018-12-19T03:38:59.625Z,7.46
2018-12-19T03:41:27.365Z,7.72
2018-12-19T03:43:54.746Z,7.98
2018-12-19T03:46:22.141Z,7.86
2018-12-19T03:48:55.066Z,8.18
2018-12-19T03:51:22.469Z,7.98
2018-12-19T03:53:49.918Z,7.42
2018-12-19T03:56:17.317Z,7.31
2018-12-19T03:58:44.716Z,7.25
2018-12-19T04:01:12.099Z,7.43
2018-12-19T04:03:39.577Z,7.93
2018-12-19T04:06:06.966Z,7.31
2018-12-19T04:08:34.397Z,7.63
2018-12-19T04:11:01.959Z,7.57
2018-12-19T04:13:29.341Z,7.76
2018-12-19T04:15:56.733Z,7.63
2018-12-19T04:18:24.136Z,7.81
2018-12-19T04:20:51.525Z,7.34
2018-12-19T04:23:18.928Z,7.26
2018-12-19T04:25:47.954Z,7.77
2018-12-19T04:28:15.436Z,8.04
2018-12-19T04:30:42.820Z,7.74
2018-12-19T04:33:10.467Z,7.62
2018-12-19T04:35:38.588Z,7.70
2018-12-19T04:38:06.046Z,7.78
2018-12-19T04:40:33.443Z,7.72
2018-12-19T04:43:00.835Z,7.62
2018-12-19T04:45:28.220Z,7.92
2018-12-19T04:47:55.629Z,7.84
2018-12-19T04:50:23.119Z,7.90
2018-12-19T04:52:50.529Z,7.49
2018-12-19T04:55:17.957Z,7.38
2018-12-19T04:57:45.388Z,7.44
2018-12-19T05:00:12.793Z,7.66
2018-12-19T05:02:40.281Z,7.76
2018-12-19T05:05:07.665Z,7.52
2018-12-19T05:07:35.133Z,7.47
2018-12-19T05:10:02.794Z,7.96
2018-12-19T05:12:30.266Z,7.91
2018-12-19T05:14:57.677Z,8.70
2018-12-19T05:17:25.096Z,7.83
2018-12-19T05:19:52.870Z,7.99
2018-12-19T05:22:20.257Z,7.77
2018-12-19T05:24:47.657Z,7.39
2018-12-19T05:27:15.059Z,7.80
2018-12-19T05:29:42.445Z,7.57
2018-12-19T05:32:09.837Z,7.38
2018-12-19T05:34:37.230Z,7.84
2018-12-19T05:37:04.667Z,8.35
2018-12-19T05:39:32.056Z,7.65
2018-12-19T05:41:59.439Z,7.71
2018-12-19T05:44:26.833Z,7.45
2018-12-19T05:46:54.220Z,7.61
2018-12-19T05:49:21.613Z,7.26
2018-12-19T05:51:48.992Z,7.86
2018-12-19T05:54:16.385Z,7.25
2018-12-19T05:56:43.786Z,7.26
2018-12-19T05:59:11.722Z,7.55
2018-12-19T06:01:39.109Z,7.56
2018-12-19T06:04:06.538Z,7.79
2018-12-19T06:06:33.983Z,7.96
2018-12-19T06:09:01.377Z,7.05
2018-12-19T06:11:28.852Z,7.34
2018-12-19T06:13:56.277Z,8.10
2018-12-19T06:16:23.680Z,7.78
2018-12-19T06:18:51.063Z,7.86
2018-12-19T06:21:18.468Z,7.81
2018-12-19T06:23:45.866Z,7.61
2018-12-19T06:26:13.275Z,7.95
2018-12-19T06:28:40.650Z,8.03
2018-12-19T06:31:08.149Z,8.25
2018-12-19T06:33:36.305Z,8.34
2018-12-19T06:36:03.715Z,8.63
2018-12-19T06:38:31.114Z,8.29
2018-12-19T06:40:58.582Z,8.18
2018-12-19T06:43:25.973Z,8.45
2018-12-19T06:45:53.357Z,8.21
2018-12-19T06:48:20.773Z,8.73
2018-12-19T06:50:48.145Z,8.13
2018-12-19T06:53:15.530Z,8.15
2018-12-19T06:55:42.921Z,8.53
2018-12-19T06:58:10.302Z,8.68
2018-12-19T07:00:37.696Z,8.44
2018-12-19T07:03:05.157Z,8.69
2018-12-19T07:05:32.582Z,8.30
2018-12-19T07:07:59.949Z,8.77
2018-12-19T07:10:27.345Z,8.15
2018-12-19T07:12:54.758Z,8.28
2018-12-19T07:15:22.238Z,8.42
2018-12-19T07:17:49.677Z,8.27
2018-12-19T07:20:17.074Z,8.36
2018-12-19T07:22:44.474Z,8.64
2018-12-19T07:25:11.863Z,8.33
2018-12-19T07:27:39.327Z,8.84
2018-12-19T07:30:07.740Z,8.56
2018-12-19T07:32:35.137Z,8.32
2018-12-19T07:35:02.563Z,8.32
2018-12-19T07:37:30.054Z,8.35
2018-12-19T07:39:57.514Z,8.66
2018-12-19T07:42:24.924Z,8.67
2018-12-19T07:44:52.311Z,8.67
2018-12-19T07:47:19.699Z,8.63
2018-12-19T07:49:47.210Z,8.70
2018-12-19T07:52:14.678Z,9.08
2018-12-19T07:54:42.067Z,9.00
2018-12-19T07:57:09.468Z,9.09
2018-12-19T07:59:36.866Z,8.51
2018-12-19T08:02:04.313Z,8.26
2018-12-19T08:04:32.082Z,8.79
2018-12-19T08:06:59.501Z,8.72
2018-12-19T08:09:26.998Z,8.65
2018-12-19T08:11:54.379Z,8.63
2018-12-19T08:14:21.781Z,8.71
2018-12-19T08:16:49.201Z,8.82
2018-12-19T08:19:16.682Z,8.78
2018-12-19T08:21:44.082Z,8.81
2018-12-19T08:24:11.508Z,8.96
2018-12-19T08:26:38.900Z,9.02
2018-12-19T08:29:06.309Z,9.17
2018-12-19T08:31:33.785Z,8.73
2018-12-19T08:34:01.247Z,9.14
2018-12-19T08:36:28.658Z,8.42
2018-12-19T08:38:56.070Z,8.87
2018-12-19T08:41:23.453Z,8.49
2018-12-19T08:43:50.852Z,8.43
2018-12-19T08:46:18.247Z,8.39
2018-12-19T08:48:45.675Z,8.42
2018-12-19T08:51:13.150Z,8.57
2018-12-19T08:53:40.560Z,8.50
2018-12-19T08:56:07.976Z,8.41
2018-12-19T08:58:35.380Z,8.57
2018-12-19T09:01:02.793Z,8.60
2018-12-19T09:03:30.200Z,8.52
2018-12-19T09:05:57.589Z,8.60
2018-12-19T09:08:24.987Z,8.54
2018-12-19T09:10:52.476Z,8.43
2018-12-19T09:13:19.887Z,8.43
2018-12-19T09:15:50.094Z,8.73
2018-12-19T09:18:18.201Z,8.80
2018-12-19T09:20:46.502Z,8.95
2018-12-19T09:23:14.301Z,9.02
2018-12-19T09:25:41.706Z,8.55
2018-12-19T09:28:09.249Z,9.02
2018-12-19T09:30:36.624Z,9.18
2018-12-19T09:33:04.048Z,8.89
2018-12-19T09:35:31.442Z,9.15
2018-12-19T09:37:58.847Z,9.38
2018-12-19T09:40:26.248Z,9.03
2018-12-19T09:42:53.750Z,8.96
2018-12-19T09:45:21.165Z,9.11
2018-12-19T09:47:48.646Z,9.26
2018-12-19T09:50:16.076Z,9.44
2018-12-19T09:52:43.539Z,9.37
2018-12-19T09:55:10.937Z,9.24
2018-12-19T09:57:38.695Z,9.25
2018-12-19T10:00:10.560Z,9.44
2018-12-19T10:02:37.961Z,9.28
2018-12-19T10:05:05.348Z,9.18
2018-12-19T10:07:32.816Z,9.38
2018-12-19T10:10:00.233Z,9.30
2018-12-19T10:12:27.626Z,9.12
2018-12-19T10:14:55.039Z,9.64
2018-12-19T10:17:22.437Z,9.29
2018-12-19T10:19:49.837Z,9.44
2018-12-19T10:31:30.658Z,9.78
2018-12-19T10:33:58.057Z,10.00
2018-12-19T10:36:31.166Z,9.84
2018-12-19T10:38:58.585Z,9.47
2018-12-19T10:41:26.055Z,9.37
2018-12-19T10:43:53.439Z,9.37
2018-12-19T10:46:20.853Z,9.81
2018-12-19T10:48:48.237Z,9.94
2018-12-19T10:51:15.998Z,9.91
2018-12-19T10:53:43.409Z,10.14
2018-12-19T10:56:10.874Z,10.19
2018-12-19T10:58:38.269Z,9.79
2018-12-19T11:01:06.830Z,10.13
2018-12-19T11:03:34.221Z,10.21
2018-12-19T11:06:01.622Z,9.99
2018-12-19T11:08:29.041Z,10.41
2018-12-19T11:10:56.438Z,10.28
2018-12-19T11:13:23.934Z,10.68
2018-12-19T11:15:51.807Z,9.75
2018-12-19T11:18:19.199Z,10.04
2018-12-19T11:20:46.654Z,10.18
2018-12-19T11:23:14.061Z,10.44
2018-12-19T11:25:41.473Z,10.06
2018-12-19T11:28:08.829Z,9.80
2018-12-19T11:30:36.230Z,10.35
2018-12-19T11:33:03.640Z,10.01
2018-12-19T11:35:31.035Z,10.33
2018-12-19T11:37:58.402Z,9.86
2018-12-19T11:40:25.821Z,9.73
2018-12-19T11:42:53.250Z,10.49
2018-12-19T11:45:20.617Z,9.82
2018-12-19T11:47:48.025Z,10.23
2018-12-19T11:50:15.398Z,9.98
2018-12-19T11:52:42.808Z,10.22
2018-12-19T11:55:10.205Z,9.50
2018-12-19T11:57:37.651Z,9.76
2018-12-19T12:00:07.132Z,9.74
2018-12-19T12:02:34.530Z,10.10
2018-12-19T12:05:02.030Z,9.92
2018-12-19T12:07:29.434Z,10.37
2018-12-19T12:09:56.853Z,10.63
2018-12-19T12:12:24.256Z,10.71
2018-12-19T12:14:51.685Z,10.98
2018-12-19T12:17:19.206Z,11.57
2018-12-19T12:19:46.624Z,11.67
2018-12-19T12:22:14.021Z,11.50
2018-12-19T12:24:41.508Z,11.24
2018-12-19T12:27:08.901Z,11.53
2018-12-19T12:29:36.308Z,11.17
2018-12-19T12:32:03.788Z,11.32
2018-12-19T12:34:31.158Z,11.05
2018-12-19T12:36:58.621Z,10.97
2018-12-19T12:39:26.116Z,10.96
2018-12-19T12:41:53.525Z,11.21
2018-12-19T12:44:21.005Z,10.96
2018-12-19T12:46:48.424Z,11.05
2018-12-19T12:49:15.825Z,11.28
2018-12-19T12:51:43.255Z,10.96
2018-12-19T12:54:10.798Z,11.05
2018-12-19T12:56:38.184Z,11.47
2018-12-19T12:59:05.592Z,11.77
2018-12-19T13:01:33.390Z,11.35
2018-12-19T13:04:00.932Z,10.95
2018-12-19T13:06:28.357Z,11.26
2018-12-19T13:08:55.845Z,11.13
2018-12-19T13:11:23.253Z,11.38
2018-12-19T13:13:50.661Z,11.50
2018-12-19T13:16:18.064Z,11.15
2018-12-19T13:18:45.571Z,10.97
2018-12-19T13:21:12.942Z,11.15
2018-12-19T13:23:40.377Z,11.17
2018-12-19T13:26:07.764Z,11.22
2018-12-19T13:28:35.184Z,11.01
2018-12-19T13:31:02.592Z,11.26
2018-12-19T13:33:30.005Z,11.60
2018-12-19T13:35:57.417Z,11.32
2018-12-19T13:38:24.897Z,11.69
2018-12-19T13:40:52.300Z,11.90
2018-12-19T13:43:19.740Z,11.89
2018-12-19T13:45:47.270Z,12.44
2018-12-19T13:48:15.086Z,12.26
2018-12-19T13:50:42.502Z,11.17
2018-12-19T13:53:09.925Z,11.45
2018-12-19T13:55:37.348Z,11.47
2018-12-19T13:58:07.125Z,12.02
2018-12-19T14:00:34.153Z,11.86
2018-12-19T14:03:01.568Z,11.44
2018-12-19T14:05:28.988Z,11.00
2018-12-19T14:07:56.419Z,11.13
2018-12-19T14:10:23.821Z,11.04
2018-12-19T14:12:51.230Z,10.56
2018-12-19T14:15:18.641Z,11.04
2018-12-19T14:17:46.051Z,11.40
2018-12-19T14:20:13.459Z,11.34
2018-12-19T14:22:40.875Z,11.62
2018-12-19T14:25:08.339Z,11.46
2018-12-19T14:27:36.826Z,11.65
2018-12-19T14:30:07.683Z,11.01
2018-12-19T14:32:38.019Z,11.22
2018-12-19T14:35:05.594Z,11.09
2018-12-19T14:37:32.997Z,11.16
2018-12-19T14:40:00.424Z,11.07
2018-12-19T14:42:27.826Z,11.13
2018-12-19T14:44:55.397Z,10.96
2018-12-19T14:47:22.800Z,11.14
2018-12-19T14:49:50.210Z,10.75
2018-12-19T14:52:17.677Z,10.94
2018-12-19T14:54:45.074Z,10.99
2018-12-19T14:57:15.273Z,11.00
2018-12-19T14:59:44.896Z,11.25
2018-12-19T15:02:12.394Z,11.65
2018-12-19T15:04:39.837Z,11.39
2018-12-19T15:07:07.239Z,11.03
2018-12-19T15:09:34.662Z,10.86
2018-12-19T15:12:02.054Z,11.13
2018-12-19T15:14:29.470Z,10.83
2018-12-19T15:16:57.045Z,10.69
2018-12-19T15:19:24.499Z,11.45
2018-12-19T15:21:51.913Z,10.91
2018-12-19T15:24:19.324Z,11.02
2018-12-19T15:26:46.729Z,10.86
2018-12-19T15:29:14.137Z,11.48
2018-12-19T15:31:41.582Z,11.51
2018-12-19T15:34:09.337Z,11.69
2018-12-19T15:36:40.479Z,11.33
2018-12-19T15:39:07.942Z,11.13
2018-12-19T15:41:35.397Z,11.15
2018-12-19T15:44:02.795Z,10.61
2018-12-19T15:46:32.852Z,10.79
2018-12-19T15:49:00.268Z,10.95
2018-12-19T15:51:27.682Z,10.66
2018-12-19T15:53:55.093Z,10.43
2018-12-19T15:56:22.572Z,11.72
2018-12-19T15:58:49.964Z,11.86
2018-12-19T16:01:17.423Z,11.26
2018-12-19T16:03:44.807Z,11.15
2018-12-19T16:06:12.283Z,11.23
2018-12-19T16:08:39.705Z,11.37
2018-12-19T16:11:07.126Z,11.86
2018-12-19T16:13:34.686Z,10.98
2018-12-19T16:16:02.342Z,11.55
2018-12-19T16:18:29.799Z,11.14
2018-12-19T16:20:57.251Z,11.19
2018-12-19T16:23:24.702Z,11.28
2018-12-19T16:25:52.093Z,10.80
2018-12-19T16:28:19.598Z,10.90
2018-12-19T16:30:46.998Z,11.22
2018-12-19T16:33:14.401Z,11.31
2018-12-19T16:35:41.835Z,11.48
2018-12-19T16:38:09.215Z,11.30
2018-12-19T16:40:36.645Z,11.40
2018-12-19T16:43:04.045Z,11.57
2018-12-19T16:45:31.485Z,11.08
2018-12-19T16:47:58.900Z,10.97
2018-12-19T16:50:26.297Z,11.04
2018-12-19T16:52:53.737Z,11.26
2018-12-19T16:55:21.146Z,11.73
2018-12-19T16:57:48.556Z,11.58
2018-12-19T17:00:15.980Z,11.38
2018-12-19T17:02:43.494Z,11.19
2018-12-19T17:05:10.888Z,11.40
2018-12-19T17:07:38.435Z,11.56
2018-12-19T17:10:06.183Z,10.67
2018-12-19T17:12:33.573Z,10.40
2018-12-19T17:15:01.002Z,10.17
2018-12-19T17:17:28.516Z,10.43
2018-12-19T17:19:56.017Z,10.82
2018-12-19T17:22:23.441Z,10.68
2018-12-19T17:24:50.887Z,10.78
2018-12-19T17:27:18.293Z,10.57
2018-12-19T17:29:45.740Z,10.91
2018-12-19T17:32:13.330Z,10.99
2018-12-19T17:34:40.731Z,10.55
2018-12-19T17:37:08.166Z,11.17
2018-12-19T17:39:35.577Z,10.39
2018-12-19T17:42:02.973Z,10.96
2018-12-19T17:44:30.448Z,10.57
2018-12-19T17:46:58.587Z,11.01
2018-12-19T17:49:26.073Z,10.88
2018-12-19T17:51:53.558Z,10.31
2018-12-19T17:54:21.573Z,10.77
2018-12-19T17:56:49.018Z,10.47
2018-12-19T17:59:16.420Z,10.46
2018-12-19T18:01:43.852Z,10.68
2018-12-19T18:04:11.482Z,10.74
2018-12-19T18:06:39.251Z,11.17
2018-12-19T18:09:06.681Z,11.07
2018-12-19T18:11:34.133Z,10.39
2018-12-19T18:14:02.021Z,10.37
2018-12-19T18:16:29.405Z,10.48
2018-12-19T18:18:56.806Z,10.68
2018-12-19T18:21:24.233Z,10.62
2018-12-19T18:23:51.661Z,10.89
2018-12-19T18:26:19.095Z,10.64
2018-12-19T18:28:46.513Z,10.73
2018-12-19T18:31:14.004Z,10.76
2018-12-19T18:33:42.199Z,10.42
2018-12-19T18:36:09.596Z,11.02
2018-12-19T18:38:36.996Z,10.72
2018-12-19T18:41:04.398Z,10.83
2018-12-19T18:43:31.825Z,10.45
2018-12-19T18:45:59.304Z,10.75
2018-12-19T18:48:26.802Z,10.72
2018-12-19T18:50:54.197Z,10.69
2018-12-19T18:53:21.626Z,10.34
2018-12-19T18:55:49.024Z,10.57
2018-12-19T18:58:17.155Z,10.93
2018-12-19T19:00:47.197Z,10.75
2018-12-19T19:03:15.239Z,10.49
2018-12-19T19:05:42.777Z,10.68
2018-12-19T19:08:10.244Z,10.59
2018-12-19T19:10:37.779Z,10.27
2018-12-19T19:13:05.236Z,10.56
2018-12-19T19:15:32.648Z,10.12
2018-12-19T19:18:00.414Z,9.91
2018-12-19T19:20:27.833Z,9.92
2018-12-19T19:22:55.249Z,10.01
2018-12-19T19:25:22.734Z,10.01
2018-12-19T19:27:50.143Z,10.09
2018-12-19T19:30:17.576Z,9.97
2018-12-19T19:32:45.813Z,9.91
2018-12-19T19:35:13.205Z,10.18
2018-12-19T19:37:40.611Z,10.30
2018-12-19T19:40:09.162Z,10.34
2018-12-19T19:42:36.594Z,10.31
2018-12-19T19:45:05.405Z,10.65
2018-12-19T19:47:32.844Z,10.43
2018-12-19T19:50:00.357Z,10.29
2018-12-19T19:52:27.772Z,9.73
2018-12-19T19:54:55.176Z,9.68
2018-12-19T19:57:22.603Z,9.81
2018-12-19T19:59:50.024Z,9.80
2018-12-19T20:02:17.425Z,9.97
2018-12-19T20:04:44.848Z,10.03
2018-12-19T20:07:12.294Z,10.14
2018-12-19T20:09:39.778Z,10.22
2018-12-19T20:12:07.262Z,9.96
2018-12-19T20:14:34.691Z,9.87
2018-12-19T20:17:02.349Z,9.66
2018-12-19T20:19:29.790Z,9.53
2018-12-19T20:21:57.192Z,9.74
2018-12-19T20:24:24.924Z,10.37
2018-12-19T20:26:52.355Z,10.54
2018-12-19T20:29:19.755Z,9.90
2018-12-19T20:31:47.316Z,10.14
2018-12-19T20:34:14.761Z,10.11
2018-12-19T20:36:42.131Z,9.78
2018-12-19T20:39:09.604Z,10.13
2018-12-19T20:41:37.042Z,10.11
2018-12-19T20:44:04.461Z,9.70
2018-12-19T20:46:31.899Z,9.55
2018-12-19T20:48:59.315Z,9.68
2018-12-19T20:51:26.751Z,9.85
2018-12-19T20:53:54.153Z,9.66
2018-12-19T20:56:21.720Z,10.09
2018-12-19T20:58:49.301Z,9.57
2018-12-19T21:01:16.763Z,9.86
2018-12-19T21:03:45.321Z,10.23
2018-12-19T21:06:12.830Z,10.06
2018-12-19T21:08:40.285Z,10.35
2018-12-19T21:11:07.714Z,10.20
2018-12-19T21:13:35.499Z,9.50
2018-12-19T21:16:02.892Z,10.06
2018-12-19T21:18:35.980Z,10.11
2018-12-19T21:21:03.414Z,10.01
2018-12-19T21:23:33.345Z,10.05
2018-12-19T21:26:01.542Z,9.73
2018-12-19T21:28:29.066Z,10.18
2018-12-19T21:30:56.678Z,9.81
2018-12-19T21:33:24.169Z,9.92
2018-12-19T21:35:51.590Z,10.25
2018-12-19T21:38:19.037Z,10.29
2018-12-19T21:40:46.536Z,10.49
2018-12-19T21:43:13.987Z,10.10
2018-12-19T21:45:41.506Z,10.15
2018-12-19T21:48:08.934Z,10.00
2018-12-19T21:50:36.379Z,9.86
2018-12-19T21:53:03.895Z,9.55
2018-12-19T21:55:31.395Z,9.61
2018-12-19T21:57:58.838Z,9.52
2018-12-19T22:00:27.575Z,9.99
2018-12-19T22:02:55.103Z,9.78
2018-12-19T22:05:22.628Z,10.01
2018-12-19T22:07:50.121Z,9.86
2018-12-19T22:10:17.524Z,9.65
2018-12-19T22:12:44.968Z,9.92
2018-12-19T22:15:12.478Z,9.88
2018-12-19T22:17:45.628Z,9.92
2018-12-19T22:20:13.116Z,9.89
2018-12-19T22:22:40.571Z,10.19
2018-12-19T22:25:07.969Z,9.86
2018-12-19T22:27:47.210Z,10.25
2018-12-19T22:30:14.802Z,9.96
2018-12-19T22:32:42.371Z,10.26
2018-12-19T22:35:09.849Z,9.98
2018-12-19T22:37:37.264Z,10.03
2018-12-19T22:40:07.435Z,10.18
2018-12-19T22:42:41.660Z,10.23
2018-12-19T22:45:09.196Z,10.08
2018-12-19T22:47:36.672Z,9.94
2018-12-19T22:50:06.149Z,10.03
2018-12-19T22:52:33.605Z,10.37
2018-12-19T22:55:04.934Z,10.12
2018-12-19T22:57:37.941Z,10.00
2018-12-19T23:00:11.382Z,10.20
2018-12-19T23:02:46.678Z,10.29
2018-12-19T23:05:16.126Z,10.30
2018-12-19T23:07:43.548Z,10.08
2018-12-19T23:10:11.689Z,9.95
2018-12-19T23:12:40.283Z,10.37
2018-12-19T23:15:08.213Z,9.89
2018-12-19T23:17:39.586Z,10.05
2018-12-19T23:20:09.476Z,9.95
2018-12-19T23:22:36.990Z,9.95
2018-12-19T23:25:05.276Z,9.81
2018-12-19T23:27:32.869Z,9.92
2018-12-19T23:30:00.281Z,9.61
2018-12-19T23:32:28.698Z,9.67
2018-12-19T23:34:56.504Z,9.71
2018-12-19T23:37:24.103Z,9.91
2018-12-19T23:39:51.519Z,9.83
2018-12-19T23:42:19.051Z,10.96
2018-12-19T23:44:46.611Z,9.81
2018-12-19T23:47:14.034Z,10.04
2018-12-19T23:49:41.446Z,9.75
2018-12-19T23:52:08.980Z,9.56
2018-12-19T23:54:36.490Z,9.74
2018-12-19T23:57:04.014Z,9.97
2018-12-19T23:59:31.478Z,9.89
